Terminal Aerodrome Forecast
Issued by NWS Tampa Bay Area, FL

Home | Current Version | Previous Version | Text Only | Print | Product List | Glossary On
Versions: 1 2 3 4 5 6 7 8 9 10 11 12
622
FTUS42 KTBW 291124
TAFSRQ
TAF
KSRQ 291124Z 2912/3012 VRB03KT P6SM FEW035
     FM291600 26008KT P6SM VCSH BKN045
     FM292000 28010G15KT P6SM SCT060
     FM300100 31005KT P6SM SCT200=

USA.gov is the U.S. government's official web portal to all federal, state and local government web resources and services.